createdAt,value
2022-09-20T00:03:26.478Z,10.98
2022-09-20T00:08:31.396Z,11.11
2022-09-20T00:13:36.506Z,11.02
2022-09-20T00:18:42.055Z,11.01
2022-09-20T00:23:47.554Z,11.04
2022-09-20T00:28:52.695Z,10.86
2022-09-20T00:34:13.982Z,10.98
2022-09-20T00:39:19.673Z,10.97
2022-09-20T00:44:43.905Z,10.97
2022-09-20T00:49:48.648Z,11.01
2022-09-20T00:54:53.730Z,10.95
2022-09-20T00:59:58.375Z,10.92
2022-09-20T01:05:01.905Z,11.02
2022-09-20T01:10:09.066Z,10.99
2022-09-20T01:15:14.481Z,10.96
2022-09-20T01:20:25.962Z,11.19
2022-09-20T01:26:04.001Z,11.12
2022-09-20T01:31:16.199Z,11.25
2022-09-20T01:36:26.775Z,11.28
2022-09-20T01:41:37.326Z,11.32
2022-09-20T01:46:45.116Z,11.25
2022-09-20T01:52:32.627Z,11.38
2022-09-20T01:58:09.148Z,11.28
2022-09-20T02:03:56.038Z,11.27
2022-09-20T02:09:42.460Z,11.07
2022-09-20T02:14:54.947Z,11.00
2022-09-20T02:20:24.264Z,11.08
2022-09-20T02:25:53.028Z,10.97
2022-09-20T02:31:03.457Z,10.89
2022-09-20T02:36:24.563Z,11.06
2022-09-20T02:42:01.382Z,11.12
2022-09-20T02:47:15.901Z,11.19
2022-09-20T02:52:30.459Z,11.03
2022-09-20T02:57:45.691Z,11.10
2022-09-20T03:03:01.957Z,11.00
2022-09-20T03:08:34.514Z,11.17
2022-09-20T03:13:52.038Z,11.32
2022-09-20T03:19:10.026Z,11.09
2022-09-20T03:24:24.370Z,11.16
2022-09-20T03:29:43.894Z,11.20
2022-09-20T03:34:58.218Z,11.28
2022-09-20T03:40:25.638Z,11.38
2022-09-20T03:45:47.391Z,11.50
2022-09-20T03:51:05.333Z,11.35
2022-09-20T03:56:33.572Z,11.26
2022-09-20T04:01:59.489Z,11.31
2022-09-20T04:07:22.379Z,11.47
2022-09-20T04:12:34.531Z,11.44
2022-09-20T04:17:50.225Z,11.53
2022-09-20T04:22:58.186Z,11.54
2022-09-20T04:28:11.770Z,11.54
2022-09-20T04:33:21.658Z,11.48
2022-09-20T04:38:26.470Z,11.60
2022-09-20T04:43:55.683Z,11.57
2022-09-20T04:49:50.118Z,11.52
2022-09-20T04:55:26.908Z,13.46
2022-09-20T05:00:44.594Z,13.84
2022-09-20T05:06:12.917Z,16.29
2022-09-20T05:11:55.276Z,16.33
2022-09-20T05:17:16.416Z,15.80
2022-09-20T05:22:53.203Z,15.34
2022-09-20T05:28:03.869Z,18.22
2022-09-20T05:33:20.482Z,18.88
2022-09-20T05:38:35.747Z,18.09
2022-09-20T05:43:51.924Z,16.98
2022-09-20T05:49:07.633Z,15.69
2022-09-20T05:54:29.265Z,14.82
2022-09-20T05:59:47.217Z,14.64
2022-09-20T06:05:01.430Z,14.52
2022-09-20T06:10:40.657Z,14.30
2022-09-20T06:15:57.540Z,14.18
2022-09-20T06:21:15.780Z,14.10
2022-09-20T06:26:24.135Z,14.23
2022-09-20T06:31:28.514Z,14.54
2022-09-20T06:36:54.826Z,14.64
2022-09-20T06:41:59.557Z,14.60
2022-09-20T06:47:03.661Z,14.24
2022-09-20T06:52:11.388Z,14.24
2022-09-20T06:57:18.765Z,14.57
2022-09-20T07:02:22.102Z,14.92
2022-09-20T07:07:27.645Z,15.59
2022-09-20T07:12:33.701Z,16.04
2022-09-20T07:17:37.794Z,15.92
2022-09-20T07:22:42.510Z,15.62
2022-09-20T07:27:47.230Z,15.54
2022-09-20T07:32:50.558Z,15.53
2022-09-20T07:38:00.255Z,15.13
2022-09-20T07:43:03.786Z,15.75
2022-09-20T07:48:08.075Z,16.50
2022-09-20T07:53:12.761Z,17.17
2022-09-20T07:58:16.939Z,18.12
2022-09-20T08:03:20.246Z,20.00
2022-09-20T08:08:25.117Z,21.19
2022-09-20T08:18:57.427Z,27.92
2022-09-20T08:24:04.143Z,26.30
2022-09-20T08:29:08.898Z,22.96
2022-09-20T08:34:15.148Z,20.91
2022-09-20T08:45:00.444Z,18.98
2022-09-20T08:50:10.200Z,19.47
2022-09-20T08:55:20.264Z,20.12
2022-09-20T09:00:27.393Z,19.25
2022-09-20T09:05:35.673Z,18.92
2022-09-20T09:10:43.133Z,18.78
2022-09-20T09:15:54.583Z,18.37
2022-09-20T09:21:00.159Z,18.59
2022-09-20T09:26:07.741Z,18.84
2022-09-20T09:31:23.299Z,18.84
2022-09-20T09:36:28.843Z,18.60
2022-09-20T09:41:36.206Z,18.54
2022-09-20T09:46:41.560Z,18.67
2022-09-20T09:52:03.419Z,18.76
2022-09-20T09:57:29.210Z,18.96
2022-09-20T10:03:01.984Z,18.91
2022-09-20T10:08:18.475Z,18.83
2022-09-20T10:13:29.726Z,18.10
2022-09-20T10:18:44.004Z,18.10
2022-09-20T10:24:13.187Z,18.27
2022-09-20T10:29:29.073Z,18.03
2022-09-20T10:34:57.964Z,18.05
2022-09-20T10:40:09.116Z,17.93
2022-09-20T10:45:53.246Z,17.64
2022-09-20T10:50:50.978Z,17.28
2022-09-20T10:56:09.308Z,16.74
2022-09-20T11:01:23.063Z,17.15
2022-09-20T11:06:44.381Z,17.29
2022-09-20T11:11:52.722Z,17.37
2022-09-20T11:17:03.904Z,17.37
2022-09-20T11:22:11.844Z,17.63
2022-09-20T11:27:20.836Z,17.57
2022-09-20T11:32:29.056Z,17.34
2022-09-20T11:37:39.077Z,17.33
2022-09-20T11:42:43.438Z,16.94
2022-09-20T11:47:55.313Z,16.94
2022-09-20T11:53:12.148Z,16.83
2022-09-20T11:58:20.022Z,16.97
2022-09-20T12:03:30.299Z,16.55
2022-09-20T12:08:37.393Z,16.41
2022-09-20T12:13:43.063Z,16.31
2022-09-20T12:19:04.360Z,15.93
2022-09-20T12:24:20.196Z,16.10
2022-09-20T12:30:15.806Z,16.22
2022-09-20T12:35:56.193Z,16.05
2022-09-20T12:41:05.041Z,16.12
2022-09-20T12:46:12.162Z,16.08
2022-09-20T12:51:41.253Z,16.22
2022-09-20T12:56:47.312Z,16.00
2022-09-20T13:01:51.663Z,15.95
2022-09-20T13:07:43.826Z,16.68
2022-09-20T13:12:53.939Z,16.50
2022-09-20T13:18:03.123Z,16.41
2022-09-20T13:23:06.781Z,16.20
2022-09-20T13:28:22.924Z,16.34
2022-09-20T13:33:26.879Z,15.91
2022-09-20T13:38:33.717Z,15.67
2022-09-20T13:43:42.570Z,15.55
2022-09-20T13:48:49.156Z,15.45
2022-09-20T13:53:52.668Z,15.54
2022-09-20T13:58:59.093Z,15.68
2022-09-20T14:04:08.423Z,15.46
2022-09-20T14:09:21.671Z,15.21
2022-09-20T14:14:26.987Z,14.88
2022-09-20T14:19:35.794Z,14.78
2022-09-20T14:24:39.857Z,14.65
2022-09-20T14:29:47.536Z,14.49
2022-09-20T14:35:00.545Z,14.38
2022-09-20T14:40:08.303Z,14.25
2022-09-20T14:45:25.685Z,14.06
2022-09-20T14:50:32.746Z,14.00
2022-09-20T14:55:38.552Z,13.97
2022-09-20T15:00:53.526Z,14.04
2022-09-20T15:05:58.080Z,13.89
2022-09-20T15:11:02.719Z,13.85
2022-09-20T15:16:08.468Z,13.64
2022-09-20T15:21:13.345Z,13.37
2022-09-20T15:26:21.333Z,13.07
2022-09-20T15:31:26.746Z,13.00
2022-09-20T15:36:33.259Z,12.80
2022-09-20T15:41:37.527Z,12.73
2022-09-20T15:46:43.671Z,12.73
2022-09-20T15:51:49.147Z,12.44
2022-09-20T15:56:54.207Z,12.29
2022-09-20T16:02:00.875Z,12.37
2022-09-20T16:07:07.406Z,12.11
2022-09-20T16:12:11.734Z,12.18
2022-09-20T16:17:18.019Z,12.26
2022-09-20T16:22:24.035Z,12.29
2022-09-20T16:27:28.267Z,12.16
2022-09-20T16:32:33.536Z,12.08
2022-09-20T16:37:38.102Z,12.22
2022-09-20T16:42:42.453Z,12.21
2022-09-20T16:47:48.443Z,12.05
2022-09-20T16:52:52.717Z,11.83
2022-09-20T16:57:57.558Z,11.65
2022-09-20T17:03:03.243Z,11.58
2022-09-20T17:08:07.045Z,11.55
2022-09-20T17:13:10.961Z,11.51
2022-09-20T17:18:17.793Z,11.43
2022-09-20T17:23:21.286Z,11.30
2022-09-20T17:28:26.300Z,11.22
2022-09-20T17:33:31.657Z,11.24
2022-09-20T17:38:40.222Z,11.19
2022-09-20T17:43:45.078Z,11.07
2022-09-20T17:48:53.494Z,11.00
2022-09-20T17:53:58.901Z,10.89
2022-09-20T17:59:05.417Z,10.84
2022-09-20T18:04:10.925Z,10.83
2022-09-20T18:09:17.251Z,10.78
2022-09-20T18:14:22.916Z,10.72
2022-09-20T18:19:33.566Z,10.71
2022-09-20T18:24:37.403Z,10.64
2022-09-20T18:29:41.806Z,10.58
2022-09-20T18:34:51.262Z,10.58
2022-09-20T18:39:55.744Z,10.52
2022-09-20T18:44:59.632Z,10.50
2022-09-20T18:50:04.752Z,10.49
2022-09-20T18:55:09.221Z,10.41
2022-09-20T19:00:16.797Z,10.45
2022-09-20T19:05:32.136Z,10.51
2022-09-20T19:10:43.741Z,10.52
2022-09-20T19:16:05.988Z,10.50
2022-09-20T19:21:24.184Z,10.50
2022-09-20T19:26:30.102Z,10.45
2022-09-20T19:31:36.345Z,10.46
2022-09-20T19:36:58.950Z,10.37
2022-09-20T19:42:15.816Z,10.24
2022-09-20T19:47:32.346Z,10.01
2022-09-20T19:52:39.489Z,9.89
2022-09-20T19:57:47.868Z,9.89
2022-09-20T20:02:51.749Z,9.90
2022-09-20T20:08:15.036Z,9.88
2022-09-20T20:13:42.369Z,9.83
2022-09-20T20:19:00.879Z,9.77
2022-09-20T20:24:17.129Z,9.45
2022-09-20T20:29:20.721Z,9.45
2022-09-20T20:34:26.515Z,9.32
2022-09-20T20:39:32.886Z,9.24
2022-09-20T20:44:36.445Z,9.06
2022-09-20T20:49:40.896Z,8.95
2022-09-20T20:54:45.661Z,8.95
2022-09-20T20:59:49.493Z,8.96
2022-09-20T21:04:52.845Z,8.86
2022-09-20T21:09:58.148Z,8.79
2022-09-20T21:15:01.605Z,8.67
2022-09-20T21:20:07.853Z,8.56
2022-09-20T21:25:12.757Z,8.43
2022-09-20T21:30:17.081Z,8.45
2022-09-20T21:35:21.675Z,8.31
2022-09-20T21:40:27.661Z,8.24
2022-09-20T21:45:31.880Z,8.10
2022-09-20T21:50:36.231Z,7.98
2022-09-20T21:55:41.674Z,7.86
2022-09-20T22:00:45.732Z,7.97
2022-09-20T22:05:50.030Z,8.15
2022-09-20T22:10:58.651Z,8.11
2022-09-20T22:16:07.744Z,8.09
2022-09-20T22:21:14.240Z,8.07
2022-09-20T22:26:21.299Z,8.05
2022-09-20T22:31:26.955Z,8.01
2022-09-20T22:36:32.973Z,7.83
2022-09-20T22:41:39.535Z,7.75
2022-09-20T22:46:43.692Z,7.68
2022-09-20T22:51:47.799Z,7.61
2022-09-20T22:56:53.238Z,7.53
2022-09-20T23:01:57.243Z,7.46
2022-09-20T23:07:01.446Z,7.28
2022-09-20T23:12:06.448Z,7.05
2022-09-20T23:17:10.458Z,6.96
2022-09-20T23:22:14.554Z,6.82
2022-09-20T23:27:20.268Z,6.78
2022-09-20T23:32:23.618Z,6.86
2022-09-20T23:37:27.701Z,6.94
2022-09-20T23:42:32.406Z,6.98
2022-09-20T23:47:36.445Z,6.99
2022-09-20T23:52:39.764Z,7.03
2022-09-20T23:57:45.278Z,7.07
